Mitch, Louisiana
Current Conditions -  °F | °C
As of 5:53 AM on Friday 28 Nov 2014 (Local Time) from KASD Reporting Station
Clear Clear  
Wind Chill: 31°   Ceiling: Unl
Heat Index: 31°   Visibility: 10mi
Dew Point: 28°   Wind: 3mph
Humidity: 89%   Direction: 360°N
Pressure: 30.43"   Gusts: NA
Location:  30.7419°N, 89.8828°W
Report Text: KASD 281153Z AUTO 36003KT 10SM CLR M01/M02 A3043 RMK AO2 SLP304 T10061022 10022 21011 51001
Loading
Personal Weather Stations






























Interactive Weather Map New forecast layout! Learn more

10-Day Weather Forecast

Advertisements
Track Severe Weather on mobile